Terminal Aerodrome Forecast
Issued by NWS

Home | Current Version | Previous Version | Text Only | Print | Product List | Glossary On
Versions: 1 2 3 4 5 6 7 8 9 10 11 12 13 14 15
000
FTUS41 KBTV 310539
TAFSLK
TAF
KSLK 310539Z 3106/0106 VRB05KT 6SM -SN HZ OVC017
      TEMPO 3106/3110 5SM -SN HZ OVC020
     FM311200 VRB03KT 6SM HZ SCT020
     FM311500 25006KT P6SM SKC
     FM010100 23004KT P6SM OVC050=

USA.gov is the U.S. government's official web portal to all federal, state and local government web resources and services.